.
WxDataArchive / Data Records for 2015-04-01
2015-03-31 April 2015 2015-04-02

Data Records for Wednesday, 01 April 2015

Time	Temp	Chill	HIndex	Humid	Dewpt	 Wind 	HiWind	WindDir	Rain 	Barom
-----	----	-----	------	-----	-----	------	------	-------	-----	-----
00:00	37.2	37.2	37.2	84	32.8	0	1	135	0.00	29.986 
00:05	37.0	37.0	37.0	84	32.6	0	1	135	0.00	29.986 
00:10	37.0	37.0	37.0	84	32.6	0	2	135	0.00	29.986 
00:15	37.0	37.0	37.0	84	32.6	0	1	135	0.00	29.994 
00:20	36.9	36.9	36.9	84	32.5	0	1	135	0.00	29.994 
00:25	36.8	36.8	36.8	84	32.4	0	1	135	0.00	29.994 
00:30	36.6	36.6	36.6	84	32.2	0	0	---	0.00	29.995 
00:35	36.3	36.3	36.3	84	31.9	0	0	---	0.00	29.995 
00:40	36.0	36.0	36.0	84	31.6	0	0	---	0.00	29.995 
00:45	35.8	35.8	35.8	85	31.7	0	0	---	0.00	30.000 
00:50	35.6	35.6	35.6	85	31.5	0	0	---	0.00	30.000 
00:55	35.5	35.5	35.5	85	31.4	0	0	---	0.00	30.000 
01:00	35.5	35.5	35.5	86	31.7	0	1	135	0.00	29.996 
01:05	35.5	35.5	35.5	87	32.0	0	1	135	0.00	29.996 
01:10	35.6	35.6	35.6	87	32.1	0	1	135	0.00	29.996 
01:15	35.6	35.6	35.6	87	32.1	0	1	135	0.00	29.993 
01:20	35.6	35.6	35.6	87	32.1	0	1	135	0.00	29.993 
01:25	35.8	35.8	35.8	87	32.3	0	0	---	0.00	29.993 
01:30	35.6	35.6	35.6	87	32.1	0	1	135	0.00	29.999 
01:35	35.8	35.8	35.8	88	32.6	0	1	135	0.00	29.999 
01:40	35.8	35.8	35.8	88	32.6	0	1	135	0.00	29.999 
01:45	35.8	35.8	35.8	88	32.6	0	1	135	0.00	29.998 
01:50	35.8	35.8	35.8	88	32.6	0	1	135	0.00	29.998 
01:55	35.8	35.8	35.8	88	32.6	0	0	---	0.00	29.998 
02:00	35.8	35.8	35.8	88	32.6	0	0	---	0.00	30.001 
02:05	35.8	35.8	35.8	88	32.6	0	1	135	0.00	30.001 
02:10	35.8	35.8	35.8	88	32.6	0	2	135	0.00	30.001 
02:15	35.8	35.8	35.8	88	32.6	0	1	135	0.00	29.993 
02:20	35.8	35.8	35.8	88	32.6	0	1	135	0.00	29.993 
02:25	35.8	35.8	35.8	88	32.6	0	0	---	0.00	29.993 
02:30	35.8	35.8	35.8	88	32.6	0	1	135	0.00	29.991 
02:35	35.8	35.8	35.8	88	32.6	0	0	---	0.00	29.991 
02:40	35.6	35.6	35.6	88	32.4	0	1	135	0.00	29.991 
02:45	35.6	35.6	35.6	88	32.4	0	1	135	0.00	29.990 
02:50	35.8	35.8	35.8	88	32.6	0	1	135	0.00	29.990 
02:55	35.9	35.9	35.9	89	33.0	0	1	135	0.00	29.990 
03:00	36.0	36.0	36.0	89	33.1	0	2	135	0.00	29.989 
03:05	36.2	36.2	36.2	88	33.0	0	1	135	0.00	29.989 
03:10	36.2	36.2	36.2	88	33.0	0	2	135	0.00	29.989 
03:15	36.0	36.0	36.0	88	32.8	0	1	135	0.00	29.987 
03:20	36.0	36.0	36.0	88	32.8	0	0	---	0.00	29.987 
03:25	35.9	35.9	35.9	88	32.7	0	1	135	0.00	29.987 
03:30	35.9	35.9	35.9	88	32.7	0	1	135	0.00	29.985 
03:35	35.9	35.9	35.9	88	32.7	0	0	---	0.00	29.985 
03:40	35.8	35.8	35.8	88	32.6	0	0	---	0.00	29.985 
03:45	35.6	35.6	35.6	88	32.4	0	0	---	0.00	29.985 
03:50	35.5	35.5	35.5	88	32.3	0	1	135	0.00	29.985 
03:55	35.5	35.5	35.5	88	32.3	0	0	---	0.00	29.985 
04:00	35.3	35.3	35.3	88	32.1	0	0	---	0.00	29.987 
04:05	35.2	35.2	35.2	88	32.0	0	0	---	0.00	29.987 
04:10	35.0	35.0	35.0	88	31.8	0	0	---	0.00	29.987 
04:15	34.9	34.9	34.9	88	31.7	0	0	---	0.00	29.987 
04:20	34.7	34.7	34.7	88	31.5	0	0	---	0.00	29.987 
04:25	34.7	34.7	34.7	88	31.5	0	0	---	0.00	29.987 
04:30	34.6	34.6	34.6	88	31.4	0	0	---	0.00	29.987 
04:35	34.6	34.6	34.6	89	31.7	0	0	---	0.00	29.987 
04:40	34.7	34.7	34.7	89	31.8	0	0	---	0.00	29.987 
04:45	34.7	34.7	34.7	89	31.8	0	0	---	0.00	29.988 
04:50	34.7	34.7	34.7	89	31.8	0	1	135	0.00	29.988 
04:55	34.9	34.9	34.9	89	32.0	0	2	135	0.00	29.988 
05:00	34.9	34.9	34.9	89	32.0	0	1	135	0.00	29.987 
05:05	34.9	34.9	34.9	89	32.0	0	0	---	0.00	29.987 
05:10	34.7	34.7	34.7	89	31.8	0	0	---	0.00	29.987 
05:15	34.4	34.4	34.4	89	31.5	0	0	---	0.00	29.987 
05:20	34.3	34.3	34.3	89	31.4	0	0	---	0.00	29.987 
05:25	34.1	34.1	34.1	89	31.2	0	0	---	0.00	29.987 
05:30	33.8	33.8	33.8	89	30.9	0	0	---	0.00	29.988 
05:35	33.7	33.7	33.7	89	30.8	0	0	---	0.00	29.988 
05:40	33.5	33.5	33.5	89	30.6	0	0	---	0.00	29.988 
05:45	33.4	33.4	33.4	89	30.5	0	0	---	0.00	29.995 
05:50	33.4	33.4	33.4	89	30.5	0	0	---	0.00	29.995 
05:55	33.2	33.2	33.2	89	30.3	0	0	---	0.00	29.995 
06:00	33.1	33.1	33.1	89	30.2	0	0	---	0.00	29.999 
06:05	32.8	32.8	32.8	89	29.9	0	0	---	0.00	29.999 
06:10	32.7	32.7	32.7	89	29.8	0	0	---	0.00	29.999 
06:15	32.4	32.4	32.4	89	29.5	0	0	---	0.00	30.005 
06:20	32.2	32.2	32.2	90	29.6	0	0	---	0.00	30.005 
06:25	32.2	32.2	32.2	90	29.6	0	0	---	0.00	30.005 
06:30	32.1	32.1	32.1	90	29.5	0	0	---	0.00	30.011 
06:35	31.9	31.9	31.9	90	29.3	0	0	---	0.00	30.011 
06:40	31.8	31.8	31.8	90	29.2	0	0	---	0.00	30.011 
06:45	31.6	31.6	31.6	90	29.0	0	0	---	0.00	30.019 
06:50	31.8	31.8	31.8	90	29.2	0	0	---	0.00	30.019 
06:55	31.8	31.8	31.8	90	29.2	0	0	---	0.00	30.019 
07:00	31.9	31.9	31.9	91	29.6	0	0	---	0.00	30.026 
07:05	31.9	31.9	31.9	91	29.6	0	0	---	0.00	30.026 
07:10	32.1	32.1	32.1	91	29.8	0	0	---	0.00	30.026 
07:15	31.9	31.9	31.9	91	29.6	0	0	---	0.00	30.034 
07:20	31.9	31.9	31.9	91	29.6	0	0	---	0.00	30.034 
07:25	31.8	31.8	31.8	91	29.5	0	0	---	0.00	30.034 
07:30	31.6	31.6	31.6	91	29.3	0	0	---	0.00	30.042 
07:35	31.5	31.5	31.5	91	29.2	0	0	---	0.00	30.042 
07:40	31.5	31.5	31.5	91	29.2	0	0	---	0.00	30.042 
07:45	31.3	31.3	31.3	91	29.0	0	0	---	0.00	30.053 
07:50	31.2	31.2	31.2	91	28.9	0	0	---	0.00	30.053 
07:55	31.2	31.2	31.2	91	28.9	0	0	---	0.00	30.053 
08:00	31.6	31.6	31.6	92	29.5	0	0	---	0.00	30.056 
08:05	31.9	31.9	31.9	92	29.8	0	0	---	0.00	30.056 
08:10	32.4	32.4	32.4	92	30.3	0	0	---	0.00	30.056 
08:15	32.8	32.8	32.8	92	30.7	0	0	---	0.00	30.070 
08:20	33.5	33.5	33.5	92	31.4	0	0	---	0.00	30.070 
08:25	34.1	34.1	34.1	92	32.0	0	0	---	0.00	30.070 
08:30	34.7	34.7	34.7	92	32.6	0	0	---	0.00	30.071 
08:35	35.5	35.5	35.5	92	33.4	0	1	135	0.00	30.071 
08:40	36.3	36.3	36.3	92	34.2	0	2	135	0.00	30.071 
08:45	37.3	37.3	37.3	92	35.2	0	2	135	0.00	30.072 
08:50	38.2	38.2	38.2	92	36.1	0	2	135	0.00	30.072 
08:55	38.9	38.9	38.9	91	36.5	0	2	135	0.00	30.072 
09:00	39.6	39.6	39.6	90	36.9	0	2	202	0.00	30.069 
09:05	40.2	40.2	40.2	88	36.9	1	3	202	0.00	30.069 
09:10	40.8	40.8	40.8	87	37.2	0	3	202	0.00	30.069 
09:15	41.3	41.3	41.3	84	36.8	0	2	202	0.00	30.078 
09:20	41.8	41.8	41.8	82	36.7	1	4	248	0.00	30.078 
09:25	42.2	42.2	42.2	80	36.5	1	3	248	0.00	30.078 
09:30	42.6	42.6	42.6	79	36.6	0	2	248	0.00	30.081 
09:35	43.1	43.1	43.1	76	36.1	1	6	248	0.00	30.081 
09:40	43.5	43.5	43.5	74	35.8	1	5	248	0.00	30.081 
09:45	44.1	44.1	44.1	72	35.7	1	5	248	0.00	30.085 
09:50	44.5	44.5	44.5	71	35.7	1	3	248	0.00	30.085 
09:55	45.1	45.1	45.1	71	36.3	0	3	248	0.00	30.085 
10:00	45.8	45.8	45.8	70	36.6	0	2	248	0.00	30.093 
10:05	46.4	46.4	46.4	69	36.8	1	3	248	0.00	30.093 
10:10	46.7	46.7	46.7	66	36.0	1	4	248	0.00	30.093 
10:15	47.1	47.1	47.1	65	35.9	1	4	248	0.00	30.104 
10:20	47.6	47.6	47.6	64	36.0	1	6	248	0.00	30.104 
10:25	48.0	48.0	48.0	63	36.0	1	4	248	0.00	30.104 
10:30	48.6	48.6	48.6	63	36.6	1	3	248	0.00	30.110 
10:35	49.1	49.1	49.1	62	36.6	1	2	248	0.00	30.110 
10:40	49.8	49.8	49.8	62	37.3	1	4	248	0.00	30.110 
10:45	50.5	50.5	50.5	61	37.6	0	2	248	0.00	30.111 
10:50	51.3	51.3	51.3	58	37.0	1	3	248	0.00	30.111 
10:55	51.9	51.9	51.9	57	37.1	1	2	248	0.00	30.111 
11:00	52.2	52.2	52.2	54	36.1	1	4	248	0.00	30.108 
11:05	52.5	52.5	52.5	54	36.3	1	4	248	0.00	30.108 
11:10	52.9	52.9	52.9	53	36.2	1	2	248	0.00	30.108 
11:15	53.6	53.6	53.6	54	37.4	0	2	248	0.00	30.109 
11:20	54.2	54.2	54.2	51	36.5	2	4	248	0.00	30.109 
11:25	54.5	54.5	54.5	50	36.2	1	3	248	0.00	30.109 
11:30	55.0	55.0	55.0	50	36.7	1	3	248	0.00	30.108 
11:35	55.4	55.4	55.4	49	36.6	1	3	248	0.00	30.108 
11:40	56.0	56.0	56.0	48	36.6	1	4	248	0.00	30.108 
11:45	56.5	56.5	56.5	47	36.5	1	3	248	0.00	30.110 
11:50	57.0	57.0	57.0	46	36.4	1	3	248	0.00	30.110 
11:55	57.5	57.5	57.5	44	35.8	1	4	248	0.00	30.110 
12:00	57.8	57.8	57.8	46	37.2	1	4	225	0.00	30.107 
12:05	57.8	57.8	57.8	44	36.0	1	5	248	0.00	30.107 
12:10	58.1	58.1	58.1	44	36.3	1	3	248	0.00	30.107 
12:15	58.7	58.7	58.7	45	37.4	0	2	248	0.00	30.101 
12:20	59.3	59.3	59.3	43	36.8	1	3	248	0.00	30.101 
12:25	59.8	59.8	59.8	43	37.3	1	3	248	0.00	30.101 
12:30	60.1	60.1	60.1	42	36.9	1	3	248	0.00	30.096 
12:35	60.4	60.4	60.4	42	37.2	1	3	248	0.00	30.096 
12:40	60.5	60.5	60.5	41	36.7	2	5	315	0.00	30.096 
12:45	61.0	61.0	61.0	42	37.7	1	2	292	0.00	30.096 
12:50	61.3	61.3	61.3	39	36.1	1	3	292	0.00	30.096 
12:55	61.6	61.6	61.6	40	37.0	1	3	270	0.00	30.096 
13:00	62.1	62.1	62.1	39	36.8	1	3	270	0.00	30.090 
13:05	62.3	62.3	62.3	39	37.0	1	3	270	0.00	30.090 
13:10	62.4	62.4	62.4	37	35.8	2	5	270	0.00	30.090 
13:15	62.3	62.3	62.3	38	36.4	1	4	338	0.00	30.081 
13:20	62.7	62.7	62.7	39	37.4	0	2	338	0.00	30.081 
13:25	63.1	63.1	63.1	37	36.4	1	4	90	0.00	30.081 
13:30	63.5	63.5	63.5	36	36.1	1	5	90	0.00	30.072 
13:35	63.5	63.5	63.5	36	36.1	2	6	270	0.00	30.072 
13:40	63.7	63.7	63.7	35	35.5	1	3	292	0.00	30.072 
13:45	63.9	63.9	63.9	37	37.1	1	3	292	0.00	30.068 
13:50	64.5	64.5	64.5	36	36.9	1	3	270	0.00	30.068 
13:55	64.7	64.7	64.7	36	37.1	1	4	248	0.00	30.068 
14:00	64.8	64.8	64.8	36	37.2	1	3	248	0.00	30.066 
14:05	65.0	65.0	65.0	35	36.7	1	4	270	0.00	30.066 
14:10	65.0	65.0	65.0	35	36.7	1	3	112	0.00	30.066 
14:15	65.3	65.3	65.3	35	36.9	0	2	112	0.00	30.059 
14:20	65.5	65.5	65.5	33	35.6	1	5	202	0.00	30.059 
14:25	65.5	65.5	65.5	38	39.2	1	6	158	0.00	30.059 
14:30	65.5	65.5	65.5	35	37.1	1	3	90	0.00	30.050 
14:35	65.6	65.6	65.6	32	34.9	1	5	248	0.00	30.050 
14:40	65.8	65.8	65.8	32	35.1	1	3	248	0.00	30.050 
14:45	66.0	66.0	66.0	31	34.5	1	5	248	0.00	30.043 
14:50	66.0	66.0	66.0	30	33.7	1	2	248	0.00	30.043 
14:55	66.4	66.4	66.4	32	35.6	0	4	248	0.00	30.043 
15:00	66.6	66.6	66.6	30	34.2	1	5	90	0.00	30.037 
15:05	66.1	66.1	66.1	30	33.8	1	4	112	0.00	30.037 
15:10	66.3	66.3	66.3	31	34.8	1	3	112	0.00	30.037 
15:15	66.6	66.6	66.6	30	34.2	1	3	112	0.00	30.033 
15:20	66.3	66.3	66.3	29	33.1	1	4	338	0.00	30.033 
15:25	66.4	66.4	66.4	31	34.8	0	1	338	0.00	30.033 
15:30	66.6	66.6	66.6	29	33.3	0	2	338	0.00	30.024 
15:35	66.6	66.6	66.6	32	35.8	1	3	338	0.00	30.024 
15:40	66.8	66.8	66.8	32	36.0	1	4	68	0.00	30.024 
15:45	67.3	67.3	67.3	30	34.8	1	2	68	0.00	30.020 
15:50	67.4	67.4	67.4	31	35.7	0	2	68	0.00	30.020 
15:55	67.3	67.3	67.3	30	34.8	1	4	68	0.00	30.020 
16:00	67.1	67.1	67.1	32	36.3	1	5	68	0.00	30.021 
16:05	67.1	67.1	67.1	30	34.6	0	2	292	0.00	30.021 
16:10	67.1	67.1	67.1	32	36.3	1	4	112	0.00	30.021 
16:15	67.1	67.1	67.1	31	35.4	1	4	248	0.00	30.020 
16:20	67.1	67.1	67.1	31	35.4	0	2	112	0.00	30.020 
16:25	67.1	67.1	67.1	29	33.8	0	1	112	0.00	30.020 
16:30	67.1	67.1	67.1	28	32.9	0	2	112	0.00	30.020 
16:35	66.8	66.8	66.8	30	34.4	1	3	22	0.00	30.020 
16:40	66.8	66.8	66.8	29	33.5	0	1	270	0.00	30.020 
16:45	66.8	66.8	66.8	30	34.4	1	3	270	0.00	30.018 
16:50	66.8	66.8	66.8	31	35.2	0	2	112	0.00	30.018 
16:55	66.9	66.9	66.9	31	35.3	0	3	248	0.00	30.018 
17:00	67.1	67.1	67.1	31	35.4	0	2	248	0.00	30.014 
17:05	66.8	66.8	66.8	28	32.6	1	4	248	0.00	30.014 
17:10	66.3	66.3	66.3	29	33.1	2	5	90	0.00	30.014 
17:15	66.3	66.3	66.3	32	35.6	0	2	90	0.00	30.014 
17:20	66.4	66.4	66.4	29	33.2	1	4	90	0.00	30.014 
17:25	66.6	66.6	66.6	29	33.3	1	4	90	0.00	30.014 
17:30	66.6	66.6	66.6	31	35.0	0	2	90	0.00	30.008 
17:35	66.8	66.8	66.8	29	33.5	1	4	90	0.00	30.008 
17:40	66.6	66.6	66.6	29	33.3	1	5	90	0.00	30.008 
17:45	66.4	66.4	66.4	31	34.8	1	4	90	0.00	30.008 
17:50	66.4	66.4	66.4	31	34.8	1	3	90	0.00	30.008 
17:55	66.6	66.6	66.6	31	35.0	0	2	90	0.00	30.008 
18:00	66.8	66.8	66.8	29	33.5	0	2	90	0.00	30.008 
18:05	66.9	66.9	66.9	31	35.3	0	3	248	0.00	30.008 
18:10	66.9	66.9	66.9	31	35.3	0	2	248	0.00	30.008 
18:15	66.4	66.4	66.4	29	33.2	1	5	248	0.00	30.008 
18:20	66.0	66.0	66.0	31	34.5	1	3	68	0.00	30.008 
18:25	65.6	65.6	65.6	31	34.1	1	4	90	0.00	30.008 
18:30	65.5	65.5	65.5	31	34.1	1	3	90	0.00	30.009 
18:35	65.5	65.5	65.5	32	34.9	0	4	90	0.00	30.009 
18:40	65.3	65.3	65.3	31	33.9	1	4	90	0.00	30.009 
18:45	65.2	65.2	65.2	32	34.6	0	2	90	0.00	30.009 
18:50	65.0	65.0	65.0	32	34.4	1	4	90	0.00	30.009 
18:55	65.0	65.0	65.0	32	34.4	1	3	90	0.00	30.009 
19:00	64.8	64.8	64.8	33	35.0	0	3	90	0.00	30.005 
19:05	64.7	64.7	64.7	31	33.4	1	5	90	0.00	30.005 
19:10	64.5	64.5	64.5	31	33.2	1	3	90	0.00	30.005 
19:15	64.3	64.3	64.3	32	33.8	1	5	90	0.00	29.999 
19:20	64.2	64.2	64.2	32	33.7	2	6	112	0.00	29.999 
19:25	63.9	63.9	63.9	33	34.2	0	2	90	0.00	29.999 
19:30	63.5	63.5	63.5	33	33.9	1	3	90	0.00	29.995 
19:35	63.2	63.2	63.2	33	33.6	1	3	90	0.00	29.995 
19:40	63.2	63.2	63.2	33	33.6	1	4	90	0.00	29.995 
19:45	63.1	63.1	63.1	33	33.5	1	2	90	0.00	29.995 
19:50	62.7	62.7	62.7	35	34.7	0	1	90	0.00	29.995 
19:55	62.3	62.3	62.3	35	34.3	0	1	90	0.00	29.995 
20:00	62.0	62.0	62.0	35	34.0	0	1	90	0.00	29.994 
20:05	61.6	61.6	61.6	35	33.7	0	1	90	0.00	29.994 
20:10	61.3	61.3	61.3	36	34.1	0	1	90	0.00	29.994 
20:15	60.9	60.9	60.9	37	34.5	0	1	90	0.00	29.989 
20:20	60.7	60.7	60.7	36	33.6	0	2	90	0.00	29.989 
20:25	60.4	60.4	60.4	37	34.0	0	1	90	0.00	29.989 
20:30	60.1	60.1	60.1	38	34.4	0	1	90	0.00	29.989 
20:35	59.9	59.9	59.9	38	34.2	0	2	90	0.00	29.989 
20:40	59.6	59.6	59.6	39	34.6	0	1	90	0.00	29.989 
20:45	59.2	59.2	59.2	39	34.3	0	2	90	0.00	29.994 
20:50	58.9	58.9	58.9	40	34.6	0	1	90	0.00	29.994 
20:55	58.6	58.6	58.6	40	34.4	0	1	90	0.00	29.994 
21:00	58.6	58.6	58.6	41	35.0	0	2	90	0.00	29.994 
21:05	58.6	58.6	58.6	41	35.0	1	2	90	0.00	29.994 
21:10	58.4	58.4	58.4	42	35.4	0	1	90	0.00	29.994 
21:15	58.3	58.3	58.3	42	35.3	0	2	90	0.00	29.993 
21:20	58.3	58.3	58.3	43	35.9	0	2	90	0.00	29.993 
21:25	58.1	58.1	58.1	43	35.7	0	2	90	0.00	29.993 
21:30	58.0	58.0	58.0	43	35.6	0	2	90	0.00	29.999 
21:35	57.6	57.6	57.6	43	35.3	0	1	90	0.00	29.999 
21:40	57.3	57.3	57.3	44	35.6	0	2	90	0.00	29.999 
21:45	57.2	57.2	57.2	45	36.1	0	2	90	0.00	30.003 
21:50	56.9	56.9	56.9	45	35.8	0	2	90	0.00	30.003 
21:55	56.9	56.9	56.9	45	35.8	0	3	90	0.00	30.003 
22:00	56.7	56.7	56.7	46	36.2	0	3	90	0.00	30.002 
22:05	56.5	56.5	56.5	46	36.0	0	1	90	0.00	30.002 
22:10	56.2	56.2	56.2	46	35.7	0	2	90	0.00	30.002 
22:15	56.0	56.0	56.0	46	35.5	0	2	90	0.00	29.995 
22:20	55.7	55.7	55.7	46	35.2	0	2	90	0.00	29.995 
22:25	55.7	55.7	55.7	46	35.2	0	1	90	0.00	29.995 
22:30	55.6	55.6	55.6	46	35.2	0	2	90	0.00	29.989 
22:35	55.6	55.6	55.6	46	35.2	1	2	90	0.00	29.989 
22:40	55.6	55.6	55.6	46	35.2	0	2	90	0.00	29.989 
22:45	55.6	55.6	55.6	46	35.2	1	5	90	0.00	29.990 
22:50	55.6	55.6	55.6	46	35.2	0	3	90	0.00	29.990 
22:55	55.4	55.4	55.4	46	35.0	0	2	90	0.00	29.990 
23:00	55.3	55.3	55.3	47	35.4	1	3	90	0.00	29.988 
23:05	55.1	55.1	55.1	47	35.2	0	2	90	0.00	29.988 
23:10	54.8	54.8	54.8	48	35.5	0	3	90	0.00	29.988 
23:15	54.5	54.5	54.5	48	35.2	0	3	90	0.00	29.981 
23:20	54.4	54.4	54.4	47	34.6	1	4	90	0.00	29.981 
23:25	54.5	54.5	54.5	47	34.7	1	5	90	0.00	29.981 
23:30	54.7	54.7	54.7	47	34.9	1	3	90	0.00	29.970 
23:35	54.7	54.7	54.7	46	34.3	1	3	90	0.00	29.970 
23:40	54.5	54.5	54.5	47	34.7	0	3	90	0.00	29.970 
23:45	54.1	54.1	54.1	47	34.3	0	2	90	0.00	29.967 
23:50	53.8	53.8	53.8	48	34.6	0	2	90	0.00	29.967 
23:55	53.5	53.5	53.5	48	34.3	0	2	90	0.00	29.967 

CoCoRaHS
IN-AL-39
A2 Web Hosting
Creative Commons License
GoDaddy
search engine by freefind advanced

loaded 2018-11-15 16:39:46 • last modified 2010-11-18 10:43:29
Privacy PolicyDisclaimer
• wx.awcolley.com is powered by PmWiki v.2002016 •
• all content (unless otherwise noted) © 2018 A W Colley